Minot, ND

8:10 PM CDT on May 25, 2017 (GMT -0500)
Edgeview Estates | | Change Station

Elev 1752 ft 48.21 °N, 101.33 °W | Updated 1 second ago

Overcast
Overcast
61.3 °F
Feels Like 61.3 °F
N
7.0
Wind Variable Wind from NW
Gusts 14.0 mph

Today
High -- | Low -- °F
--% Chance of Precip.
Yesterday
High -- | Low -- °F
Precip. -- in
Pressure 29.47 in
Visibility 10.0 miles
Clouds Overcast 9000 ft
Dew Point 44 °F
Humidity 53%
Rainfall 0.09 in
Snow Depth Not available.
5:54 AM 9:30 PM
New Moon, 0% visible
METAR KMOT 260054Z 23016G23KT 10SM OVC090 17/06 A2947 RMK AO2 SLP980 T01720061
Pressure 29.47 in
Visibility 10.0 miles
Clouds Overcast 9000 ft
Dew Point 44 °F
Humidity 53%
Rainfall 0.09 in
Snow Depth Not available.
5:54 AM 9:30 PM
New Moon, 0% visible
METAR KMOT 260054Z 23016G23KT 10SM OVC090 17/06 A2947 RMK AO2 SLP980 T01720061

Get Severe Weather Alerts

Thanks for signing up!

Be on the lookout for a verification email in your inbox.

You'll start receiving the daily forecast at 6 AM.

×

10-Day Weather Forecast

Almanac

Astronomy

May. 25, 2017 Rise Set
Actual Time
Civil Twilight
Nautical Twilight
Astronomical Twilight
Moon
Length of Visible Light
Length of Day
Tomorrow will be .
, % of the Moon is Illuminated

Today's Extremes

State Highs State Lows

Community

WunderPhotos

Category 6

Welcome to Category 6. This is the collective home for Weather Underground's featured writeups by Dr. Jeff Masters (right), Bob Henson (left), Chris Burt, and other regular contributors.

Nearby

Air Quality

  Air Quality AQ Index Pollutant
Not available.

Snow Depth

Station Depth Elevation

Earthquake Activity

City Distance Mag. Time & Date
Minimum magnitude displayed is 2.5.

Coastal Water Temperatures

Place Temperature

Stations

Nearby Weather Stations

Station Location Temp. Windchill Dew Point Humidity Wind Precip. Elev Updated Type
                   

Watches & Warnings

There are currently no watches in effect.